Time;durP1;ratioP1;P1;durP2;ratioP2;P2;SDS_P1;SDS_P2;PMS_P1;PMS_P2;Temp;Humidity;BMP_temperature;BMP_pressure;BME280_temperature;BME280_humidity;BME280_pressure;Samples;Min_cycle;Max_cycle;Signal;HPM_P1;HPM_P2
2022/08/02 00:02:09;;;;;;;5.17;2.10;;;12.60;99.90;;;;;;5105299;27;20208;-51
2022/08/02 00:04:36;;;;;;;3.80;2.03;;;12.60;99.90;;;;;;5101593;27;20205;-56
2022/08/02 00:07:02;;;;;;;2.97;2.03;;;12.60;99.90;;;;;;5105787;28;20231;-54
2022/08/02 00:09:30;;;;;;;3.30;1.70;;;12.60;99.90;;;;;;5094178;27;20205;-53
2022/08/02 00:11:56;;;;;;;4.03;2.10;;;12.60;99.90;;;;;;5112275;27;20221;-51
2022/08/02 00:14:23;;;;;;;4.47;1.90;;;12.50;99.90;;;;;;5098159;27;20212;-55
2022/08/02 00:16:50;;;;;;;7.53;2.17;;;12.50;99.90;;;;;;5116059;27;20186;-55
2022/08/02 00:19:19;;;;;;;2.03;1.80;;;12.50;99.90;;;;;;5104475;28;20201;-54
2022/08/02 00:21:46;;;;;;;4.03;1.77;;;12.60;99.90;;;;;;5103764;27;20246;-52
2022/08/02 00:24:12;;;;;;;3.33;1.70;;;12.60;99.90;;;;;;5103714;27;20205;-53
2022/08/02 00:26:40;;;;;;;4.20;1.67;;;12.40;99.90;;;;;;5104849;27;20247;-51
2022/08/02 00:29:06;;;;;;;2.30;1.60;;;12.40;99.90;;;;;;5110980;27;20216;-54
2022/08/02 00:31:33;;;;;;;3.73;1.40;;;12.30;99.90;;;;;;5102827;27;20205;-53
2022/08/02 00:34:00;;;;;;;3.73;1.70;;;12.20;99.90;;;;;;5106064;27;20193;-50
2022/08/02 00:36:29;;;;;;;5.40;1.60;;;12.00;99.90;;;;;;5102173;27;20197;-54
2022/08/02 00:38:55;;;;;;;5.27;1.80;;;11.90;99.90;;;;;;5105144;28;20256;-54
2022/08/02 00:41:23;;;;;;;5.30;1.83;;;11.90;99.90;;;;;;5095687;27;20263;-56
2022/08/02 00:43:52;;;;;;;2.77;1.40;;;11.80;99.90;;;;;;5116753;27;21057;-51
2022/08/02 00:46:20;;;;;;;7.60;1.97;;;11.80;99.90;;;;;;5100274;27;20212;-55
2022/08/02 00:48:48;;;;;;;4.67;1.87;;;11.80;99.90;;;;;;5109236;27;20209;-51
2022/08/02 00:51:16;;;;;;;3.03;1.60;;;11.90;99.90;;;;;;5104322;28;20677;-55
2022/08/02 00:53:44;;;;;;;1.57;1.40;;;12.00;99.90;;;;;;5101913;27;20922;-55
2022/08/02 00:56:11;;;;;;;1.93;1.67;;;12.00;99.90;;;;;;5104846;28;20193;-52
2022/08/02 00:58:38;;;;;;;3.43;1.50;;;11.90;99.90;;;;;;5101304;27;20686;-48
2022/08/02 01:01:05;;;;;;;3.63;1.50;;;11.90;99.90;;;;;;5102179;27;20238;-55
2022/08/02 01:03:32;;;;;;;2.40;1.40;;;11.90;99.90;;;;;;5108141;27;20190;-52
2022/08/02 01:05:59;;;;;;;3.20;2.20;;;11.70;99.90;;;;;;5104639;27;20197;-53
2022/08/02 01:08:26;;;;;;;4.47;1.20;;;11.70;99.90;;;;;;5101741;27;20304;-57
2022/08/02 01:10:54;;;;;;;3.00;2.17;;;11.70;99.90;;;;;;5104084;28;20209;-52
2022/08/02 01:13:24;;;;;;;3.10;1.67;;;11.70;99.90;;;;;;5094533;27;20212;-54
2022/08/02 01:16:00;;;;;;;4.80;1.93;;;11.80;99.90;;;;;;5109950;27;22116;-51
2022/08/02 01:18:33;;;;;;;4.03;1.70;;;11.80;99.90;;;;;;5103608;27;20685;-54
2022/08/02 01:21:20;;;;;;;4.63;1.60;;;11.80;99.90;;;;;;5117754;27;20201;-53
2022/08/02 01:24:19;;;;;;;5.27;1.80;;;11.80;99.90;;;;;;5102242;28;21017;-51
2022/08/02 01:26:53;;;;;;;2.33;1.47;;;11.70;99.90;;;;;;5102312;28;20193;-51
2022/08/02 01:29:26;;;;;;;3.93;1.67;;;11.70;99.90;;;;;;5105585;27;20538;-52
2022/08/02 01:31:58;;;;;;;3.83;1.73;;;11.60;99.90;;;;;;5102002;27;20225;-50
2022/08/02 01:34:32;;;;;;;4.73;1.43;;;11.60;99.90;;;;;;5113244;27;20189;-56
2022/08/02 01:37:07;;;;;;;6.60;1.97;;;11.50;99.90;;;;;;5104278;28;20196;-51
2022/08/02 01:39:36;;;;;;;2.40;1.63;;;11.30;99.90;;;;;;5100406;28;20802;-54
2022/08/02 01:42:04;;;;;;;2.83;1.40;;;11.30;99.90;;;;;;5103968;28;20202;-53
2022/08/02 01:44:36;;;;;;;1.93;1.40;;;11.30;99.90;;;;;;5094904;27;20212;-54
2022/08/02 01:47:06;;;;;;;3.53;1.40;;;11.30;99.90;;;;;;5101291;28;20201;-51
2022/08/02 01:49:35;;;;;;;3.20;1.47;;;11.30;99.90;;;;;;5103982;27;20185;-50
2022/08/02 01:52:23;;;;;;;1.30;1.20;;;11.30;99.90;;;;;;5104129;28;20309;-50
2022/08/02 01:54:56;;;;;;;3.33;1.60;;;11.20;99.90;;;;;;5117950;28;20272;-49
2022/08/02 01:57:25;;;;;;;1.43;1.13;;;11.20;99.90;;;;;;5121397;28;20225;-55
2022/08/02 01:59:57;;;;;;;3.53;1.33;;;11.30;99.90;;;;;;5108542;28;20209;-50
2022/08/02 02:02:24;;;;;;;3.13;1.43;;;11.30;99.90;;;;;;5103735;27;20197;-55
2022/08/02 02:04:53;;;;;;;4.33;1.67;;;11.20;99.90;;;;;;5108883;28;20916;-51
2022/08/02 02:07:20;;;;;;;2.50;1.73;;;11.10;99.90;;;;;;5105021;27;20754;-54
2022/08/02 02:09:49;;;;;;;3.50;1.60;;;11.20;99.90;;;;;;5102296;28;20201;-55
2022/08/02 02:12:18;;;;;;;5.53;1.70;;;11.20;99.90;;;;;;5102777;28;20230;-54
2022/08/02 02:14:46;;;;;;;4.40;1.57;;;11.30;99.90;;;;;;5097256;28;20228;-52
2022/08/02 02:17:15;;;;;;;4.10;1.67;;;11.30;99.90;;;;;;5106672;28;20228;-52
2022/08/02 02:19:45;;;;;;;3.67;1.70;;;11.20;99.90;;;;;;5098788;27;20201;-51
2022/08/02 02:22:12;;;;;;;3.17;1.40;;;11.20;99.90;;;;;;5105578;27;20190;-52
2022/08/02 02:24:39;;;;;;;1.60;1.50;;;11.10;99.90;;;;;;5099806;28;20309;-51
2022/08/02 02:27:09;;;;;;;3.77;1.80;;;11.00;99.90;;;;;;5104008;28;20225;-53
2022/08/02 02:29:39;;;;;;;2.20;2.00;;;11.00;99.90;;;;;;5092306;28;20213;-52
2022/08/02 02:32:07;;;;;;;5.40;2.13;;;11.00;99.90;;;;;;5113508;28;20213;-55
2022/08/02 02:34:38;;;;;;;5.80;1.80;;;10.90;99.90;;;;;;5095500;28;20197;-54
2022/08/02 02:37:12;;;;;;;3.67;1.50;;;10.90;99.90;;;;;;5115642;28;20225;-52
2022/08/02 02:39:41;;;;;;;3.77;2.27;;;10.90;99.90;;;;;;5100043;28;20199;-54
2022/08/02 02:42:11;;;;;;;1.93;1.77;;;10.90;99.90;;;;;;5103916;28;20666;-49
2022/08/02 02:44:40;;;;;;;5.60;1.83;;;10.90;99.90;;;;;;5099355;28;20190;-54
2022/08/02 02:47:10;;;;;;;3.97;1.80;;;10.90;99.90;;;;;;5100891;28;20274;-53
2022/08/02 02:49:40;;;;;;;4.83;1.93;;;10.90;99.90;;;;;;5093645;28;20201;-52
2022/08/02 02:52:08;;;;;;;2.67;1.30;;;10.90;99.90;;;;;;5112269;27;20697;-53
2022/08/02 02:54:38;;;;;;;3.77;1.67;;;10.90;99.90;;;;;;5102252;27;20197;-52
2022/08/02 02:57:06;;;;;;;3.80;1.77;;;10.90;99.90;;;;;;5107265;27;20566;-50
2022/08/02 02:59:34;;;;;;;1.87;1.70;;;11.00;99.90;;;;;;5109489;27;20187;-53
2022/08/02 03:02:02;;;;;;;4.40;2.00;;;10.90;99.90;;;;;;5102738;27;20285;-53
2022/08/02 03:04:29;;;;;;;4.20;1.80;;;10.90;99.90;;;;;;5112506;27;20676;-53
2022/08/02 03:06:57;;;;;;;3.40;2.30;;;10.80;99.90;;;;;;5103887;27;20205;-56
2022/08/02 03:09:24;;;;;;;1.83;1.60;;;10.90;99.90;;;;;;5112708;27;20204;-54
2022/08/02 03:11:53;;;;;;;4.10;1.70;;;10.80;99.90;;;;;;5106063;27;20787;-50
2022/08/02 03:14:20;;;;;;;2.77;1.80;;;10.80;99.90;;;;;;5104771;28;20208;-54
2022/08/02 03:16:48;;;;;;;2.93;1.90;;;10.80;99.90;;;;;;5097066;27;21176;-54
2022/08/02 03:19:17;;;;;;;3.27;1.47;;;10.80;99.90;;;;;;5114451;27;20202;-53
2022/08/02 03:21:45;;;;;;;5.30;1.77;;;10.80;99.90;;;;;;5102959;27;20324;-52
2022/08/02 03:24:14;;;;;;;2.50;2.30;;;10.70;99.90;;;;;;5112064;27;20197;-55
2022/08/02 03:26:41;;;;;;;4.27;1.60;;;10.70;99.90;;;;;;5103425;27;20193;-55
2022/08/02 03:29:09;;;;;;;3.07;1.93;;;10.80;99.90;;;;;;5106666;27;20667;-55
2022/08/02 03:31:36;;;;;;;3.67;2.03;;;10.90;99.90;;;;;;5111607;27;20205;-55
2022/08/02 03:34:03;;;;;;;4.00;1.87;;;10.90;99.90;;;;;;5103884;27;20256;-54
2022/08/02 03:36:32;;;;;;;3.27;1.90;;;10.90;99.90;;;;;;5107337;27;20198;-54
2022/08/02 03:39:01;;;;;;;4.07;1.60;;;10.90;99.90;;;;;;5108522;27;20247;-55
2022/08/02 03:41:30;;;;;;;3.07;2.20;;;10.80;99.90;;;;;;5103171;27;20276;-55
2022/08/02 03:43:57;;;;;;;2.40;1.70;;;10.70;99.90;;;;;;5105804;28;20209;-54
2022/08/02 03:46:27;;;;;;;1.60;1.50;;;10.60;99.90;;;;;;5103565;27;20206;-53
2022/08/02 03:48:55;;;;;;;2.30;1.60;;;10.60;99.90;;;;;;5111248;27;20239;-51
2022/08/02 03:51:22;;;;;;;4.20;1.97;;;10.70;99.90;;;;;;5102383;27;20732;-50
2022/08/02 03:53:50;;;;;;;2.33;1.53;;;10.80;99.90;;;;;;5115531;27;20189;-54
2022/08/02 03:56:18;;;;;;;2.17;1.67;;;10.80;99.90;;;;;;5104972;27;20319;-54
2022/08/02 03:58:46;;;;;;;5.07;1.50;;;10.70;99.90;;;;;;5103981;27;20224;-56
2022/08/02 04:01:13;;;;;;;3.00;1.80;;;10.60;99.90;;;;;;5112496;27;20204;-54
2022/08/02 04:03:40;;;;;;;2.83;1.77;;;10.70;99.90;;;;;;5100572;27;20274;-52
2022/08/02 04:06:07;;;;;;;6.43;2.03;;;10.60;99.90;;;;;;5092538;27;20208;-50
2022/08/02 04:08:34;;;;;;;3.17;1.77;;;10.60;99.90;;;;;;5115030;27;20224;-53
2022/08/02 04:13:47;;;;;;;6.37;2.27;;;10.70;99.90;;;;;;5105180;27;20576;-51
2022/08/02 04:16:19;;;;;;;2.57;1.80;;;10.80;99.90;;;;;;5103797;27;20254;-52
2022/08/02 04:18:52;;;;;;;2.00;1.80;;;10.80;99.90;;;;;;5121682;27;20221;-55
2022/08/02 04:21:21;;;;;;;4.97;2.20;;;10.80;99.90;;;;;;5103199;27;20227;-51
2022/08/02 04:23:50;;;;;;;4.20;1.77;;;10.90;99.90;;;;;;5112694;27;20258;-56
2022/08/02 04:26:19;;;;;;;3.40;1.90;;;10.80;99.90;;;;;;5107169;27;20189;-56
2022/08/02 04:28:48;;;;;;;2.87;2.00;;;10.80;99.90;;;;;;5106822;27;20235;-55
2022/08/02 04:31:18;;;;;;;13.73;2.20;;;10.80;99.90;;;;;;5112974;27;20197;-55
2022/08/02 04:33:45;;;;;;;5.10;2.20;;;10.90;99.90;;;;;;5109582;27;20197;-53
2022/08/02 04:36:13;;;;;;;2.40;1.57;;;10.90;99.90;;;;;;5098591;27;20284;-56
2022/08/02 04:38:39;;;;;;;2.20;1.70;;;10.80;99.90;;;;;;5107220;27;20232;-55
2022/08/02 04:41:06;;;;;;;4.80;1.70;;;10.80;99.90;;;;;;5108265;27;20197;-52
2022/08/02 04:43:34;;;;;;;2.53;2.00;;;10.80;99.90;;;;;;5102275;27;20795;-55
2022/08/02 04:46:03;;;;;;;3.90;1.93;;;10.80;99.90;;;;;;5107764;27;20209;-56
2022/08/02 04:48:31;;;;;;;2.87;2.00;;;10.80;99.90;;;;;;5102675;27;20221;-56
2022/08/02 04:50:58;;;;;;;2.70;2.10;;;10.80;99.90;;;;;;5101995;27;20630;-56
2022/08/02 04:53:24;;;;;;;2.83;1.90;;;10.80;99.90;;;;;;5101491;27;20225;-55
2022/08/02 04:55:52;;;;;;;2.63;2.07;;;10.70;99.90;;;;;;5114249;27;20669;-55
2022/08/02 04:58:18;;;;;;;2.43;2.20;;;10.80;99.90;;;;;;5104070;27;20228;-48
2022/08/02 05:00:45;;;;;;;4.83;2.10;;;10.80;99.90;;;;;;5111642;27;20200;-54
2022/08/02 05:03:14;;;;;;;3.10;2.17;;;10.90;99.90;;;;;;5111018;27;21022;-54
2022/08/02 05:05:41;;;;;;;3.60;2.43;;;10.90;99.90;;;;;;5107780;27;20205;-50
2022/08/02 05:08:08;;;;;;;5.60;2.13;;;10.90;99.90;;;;;;5101713;27;20248;-51
2022/08/02 05:10:35;;;;;;;4.63;1.93;;;11.00;99.90;;;;;;5107978;27;20875;-54
2022/08/02 05:13:04;;;;;;;3.63;2.43;;;11.00;99.90;;;;;;5105082;27;20240;-57
2022/08/02 05:15:30;;;;;;;2.43;2.20;;;10.90;99.90;;;;;;5110412;27;20201;-55
2022/08/02 05:17:57;;;;;;;2.83;1.90;;;10.90;99.90;;;;;;5114789;27;20692;-56
2022/08/02 05:20:25;;;;;;;6.17;2.27;;;10.90;99.90;;;;;;5107300;27;20758;-53
2022/08/02 05:22:52;;;;;;;3.50;2.20;;;11.00;99.90;;;;;;5101952;27;20216;-55
2022/08/02 05:25:18;;;;;;;2.47;2.20;;;11.10;99.90;;;;;;5103723;27;20197;-53
2022/08/02 05:27:45;;;;;;;3.97;2.60;;;11.10;99.90;;;;;;5108307;28;20743;-56
2022/08/02 05:30:13;;;;;;;2.37;2.10;;;11.20;99.90;;;;;;5104432;27;20499;-53
2022/08/02 05:32:43;;;;;;;4.27;2.40;;;11.30;99.90;;;;;;5109891;27;20220;-52
2022/08/02 05:35:10;;;;;;;5.60;2.43;;;11.40;99.90;;;;;;5096186;27;20207;-56
2022/08/02 05:37:38;;;;;;;3.70;2.20;;;11.40;99.90;;;;;;5114178;27;20685;-56
2022/08/02 05:40:07;;;;;;;3.43;2.73;;;11.50;99.90;;;;;;5085300;27;20277;-57
2022/08/02 05:42:33;;;;;;;4.73;2.80;;;11.50;99.90;;;;;;5116426;27;20202;-55
2022/08/02 05:45:00;;;;;;;3.77;2.77;;;11.60;99.90;;;;;;5103775;27;20603;-56
2022/08/02 05:47:27;;;;;;;4.20;2.33;;;11.70;99.90;;;;;;5110184;27;20285;-55
2022/08/02 05:49:54;;;;;;;4.30;2.40;;;11.70;99.90;;;;;;5109143;28;20193;-55
2022/08/02 05:52:25;;;;;;;4.67;2.83;;;11.80;99.90;;;;;;5103781;27;20217;-54
2022/08/02 05:55:02;;;;;;;4.23;3.03;;;11.90;99.90;;;;;;5096608;28;20212;-56
2022/08/02 05:57:41;;;;;;;5.57;2.80;;;12.00;99.90;;;;;;5105623;28;20219;-52
2022/08/02 06:00:10;;;;;;;11.67;4.03;;;12.10;99.90;;;;;;5112619;28;20184;-50
2022/08/02 06:02:50;;;;;;;7.27;3.90;;;12.20;99.90;;;;;;5105300;28;20714;-52
2022/08/02 06:05:19;;;;;;;8.93;4.20;;;12.30;99.90;;;;;;5101976;28;20284;-49
2022/08/02 06:07:48;;;;;;;12.23;4.73;;;12.40;99.90;;;;;;5101415;28;20621;-55
2022/08/02 06:10:21;;;;;;;7.67;4.60;;;12.50;99.90;;;;;;5096834;28;20214;-54
2022/08/02 06:12:51;;;;;;;9.67;4.80;;;12.70;99.90;;;;;;5106437;28;20221;-57
2022/08/02 06:15:19;;;;;;;7.43;4.33;;;12.80;99.90;;;;;;5110037;27;20671;-55
2022/08/02 06:17:47;;;;;;;9.07;4.47;;;12.90;99.90;;;;;;5101343;28;20239;-56
2022/08/02 06:20:15;;;;;;;7.57;3.87;;;13.00;99.90;;;;;;5103030;28;20615;-55
2022/08/02 06:22:44;;;;;;;13.20;4.97;;;13.20;99.90;;;;;;5102104;28;20588;-57
2022/08/02 06:25:12;;;;;;;6.17;3.93;;;13.30;99.90;;;;;;5094301;28;20209;-51
2022/08/02 06:27:41;;;;;;;8.27;4.23;;;13.40;99.90;;;;;;5108810;27;20282;-56
2022/08/02 06:30:10;;;;;;;9.87;4.50;;;13.60;99.90;;;;;;5109964;27;20189;-51
2022/08/02 06:32:37;;;;;;;8.40;4.20;;;13.70;99.90;;;;;;5117670;27;20705;-56
2022/08/02 06:35:05;;;;;;;5.83;3.53;;;13.80;99.90;;;;;;5103863;28;20193;-54
2022/08/02 06:37:37;;;;;;;11.17;4.73;;;13.90;99.90;;;;;;5107730;27;20217;-53
2022/08/02 06:40:11;;;;;;;10.63;4.43;;;14.10;99.90;;;;;;5096402;27;20220;-54
2022/08/02 06:42:49;;;;;;;11.23;5.03;;;14.20;99.90;;;;;;5108286;27;20208;-57
2022/08/02 06:45:17;;;;;;;11.17;5.67;;;14.40;99.90;;;;;;5115071;27;20241;-55
2022/08/02 06:47:44;;;;;;;7.33;3.30;;;14.50;99.90;;;;;;5105399;27;20221;-56
2022/08/02 06:50:11;;;;;;;10.43;3.87;;;14.60;99.90;;;;;;5106024;27;20190;-57
2022/08/02 06:52:38;;;;;;;11.03;4.50;;;14.60;99.90;;;;;;5106489;27;20217;-56
2022/08/02 06:55:07;;;;;;;12.13;3.80;;;14.70;99.90;;;;;;5104167;27;20197;-51
2022/08/02 06:57:34;;;;;;;8.10;3.50;;;14.80;99.90;;;;;;5101455;27;20594;-55
2022/08/02 07:00:08;;;;;;;5.33;3.63;;;14.80;99.90;;;;;;5117686;27;20902;-52
2022/08/02 07:02:35;;;;;;;6.80;4.00;;;14.90;99.90;;;;;;5107348;27;20193;-57
2022/08/02 07:05:03;;;;;;;8.23;3.40;;;14.90;99.90;;;;;;5103277;27;20255;-51
2022/08/02 07:07:30;;;;;;;8.77;3.70;;;15.00;99.90;;;;;;5106990;27;20217;-52
2022/08/02 07:09:58;;;;;;;9.70;2.73;;;15.10;99.90;;;;;;5103056;27;20185;-56
2022/08/02 07:12:25;;;;;;;7.20;2.17;;;15.20;99.90;;;;;;5105422;27;20299;-56
2022/08/02 07:14:52;;;;;;;7.10;2.93;;;15.30;99.90;;;;;;5104040;27;20209;-56
2022/08/02 07:17:20;;;;;;;5.97;2.30;;;15.30;99.90;;;;;;5117108;27;20217;-56
2022/08/02 07:19:46;;;;;;;8.10;2.43;;;15.40;99.90;;;;;;5104336;27;20226;-52
2022/08/02 07:22:14;;;;;;;5.20;2.10;;;15.50;99.90;;;;;;5105830;28;20229;-51
2022/08/02 07:24:41;;;;;;;6.10;2.57;;;15.50;99.90;;;;;;5104729;27;20573;-53
2022/08/02 07:27:08;;;;;;;7.50;2.33;;;15.60;99.90;;;;;;5094924;27;20231;-53
2022/08/02 07:29:35;;;;;;;5.63;2.10;;;15.60;99.90;;;;;;5104534;27;20200;-51
2022/08/02 07:32:01;;;;;;;8.40;2.37;;;15.70;99.90;;;;;;5112290;27;20495;-54
2022/08/02 07:34:29;;;;;;;5.27;2.20;;;15.80;99.90;;;;;;5106312;27;20200;-56
2022/08/02 07:36:56;;;;;;;6.27;2.30;;;15.90;99.90;;;;;;5102440;27;20263;-55
2022/08/02 07:39:24;;;;;;;4.30;2.33;;;15.90;99.90;;;;;;5106207;27;20688;-51
2022/08/02 07:41:51;;;;;;;9.23;2.63;;;16.00;99.90;;;;;;5102724;27;20208;-54
2022/08/02 07:44:18;;;;;;;6.67;2.13;;;16.00;99.90;;;;;;5103612;27;20291;-51
2022/08/02 07:46:45;;;;;;;8.67;2.00;;;16.10;99.90;;;;;;5097617;27;20206;-52
2022/08/02 07:49:17;;;;;;;12.83;3.30;;;16.20;99.90;;;;;;5115100;27;20212;-51
2022/08/02 07:51:45;;;;;;;5.63;2.60;;;16.30;99.90;;;;;;5104226;27;20210;-54
2022/08/02 07:54:12;;;;;;;7.07;2.23;;;16.30;99.90;;;;;;5104260;27;20220;-55
2022/08/02 07:56:39;;;;;;;5.63;1.80;;;16.40;99.90;;;;;;5098076;27;20676;-53
2022/08/02 07:59:06;;;;;;;8.10;1.50;;;16.50;99.90;;;;;;5093533;27;20212;-55
2022/08/02 08:01:33;;;;;;;5.97;1.83;;;16.60;99.90;;;;;;5100061;27;20203;-54
2022/08/02 08:04:00;;;;;;;6.83;2.00;;;16.60;99.90;;;;;;5110281;27;20200;-55
2022/08/02 08:06:26;;;;;;;5.53;2.00;;;16.70;99.90;;;;;;5107095;27;20201;-54
2022/08/02 08:08:54;;;;;;;5.60;1.73;;;16.80;99.90;;;;;;5110128;27;20332;-53
2022/08/02 08:11:21;;;;;;;6.30;1.80;;;16.80;99.90;;;;;;5113353;27;20299;-55
2022/08/02 08:13:48;;;;;;;6.53;1.80;;;17.00;99.90;;;;;;5093001;27;23085;-54
2022/08/02 08:16:15;;;;;;;5.13;1.57;;;17.10;99.90;;;;;;5108302;27;20804;-53
2022/08/02 08:18:41;;;;;;;6.33;2.37;;;17.10;99.90;;;;;;5105989;27;20212;-56
2022/08/02 08:21:08;;;;;;;5.50;2.47;;;17.20;99.90;;;;;;5108367;27;20564;-54
2022/08/02 08:23:35;;;;;;;4.00;1.47;;;17.30;99.90;;;;;;5094553;27;20241;-56
2022/08/02 08:26:04;;;;;;;3.90;1.50;;;17.40;99.90;;;;;;5114169;27;20192;-56
2022/08/02 08:28:31;;;;;;;2.53;1.43;;;17.50;99.90;;;;;;5099608;27;20225;-55
2022/08/02 08:30:58;;;;;;;3.57;1.60;;;17.60;99.90;;;;;;5104359;27;20209;-55
2022/08/02 08:33:25;;;;;;;4.77;1.60;;;17.70;99.90;;;;;;5110775;27;20206;-49
2022/08/02 08:35:51;;;;;;;8.17;1.77;;;17.80;99.90;;;;;;5109919;27;20208;-51
2022/08/02 08:38:18;;;;;;;7.20;1.50;;;17.90;99.90;;;;;;5107369;27;20288;-56
2022/08/02 08:40:48;;;;;;;5.43;1.60;;;18.00;99.90;;;;;;5107244;27;20543;-55
2022/08/02 08:43:16;;;;;;;4.10;1.37;;;18.10;99.90;;;;;;5093325;27;20205;-55
2022/08/02 08:45:44;;;;;;;5.90;1.73;;;18.20;99.90;;;;;;5097658;27;20197;-52
2022/08/02 08:48:14;;;;;;;6.23;1.50;;;18.30;99.90;;;;;;5105070;27;20231;-55
2022/08/02 08:50:47;;;;;;;4.33;1.30;;;18.40;99.90;;;;;;5106785;27;20846;-56
2022/08/02 08:53:15;;;;;;;6.87;1.70;;;18.40;99.90;;;;;;5110816;27;20219;-53
2022/08/02 08:55:42;;;;;;;4.37;1.43;;;18.50;99.90;;;;;;5108302;27;20210;-51
2022/08/02 08:58:09;;;;;;;3.27;1.30;;;18.50;99.90;;;;;;5096878;27;20213;-55
2022/08/02 09:00:37;;;;;;;3.30;1.43;;;18.50;99.90;;;;;;5100994;27;20200;-50
2022/08/02 09:03:05;;;;;;;4.33;1.57;;;18.50;99.90;;;;;;5103415;27;20193;-55
2022/08/02 09:05:35;;;;;;;3.53;1.70;;;18.50;99.90;;;;;;5116484;27;20207;-53
2022/08/02 09:08:01;;;;;;;7.10;2.03;;;18.60;99.90;;;;;;5112576;27;20228;-53
2022/08/02 09:10:38;;;;;;;4.67;1.60;;;18.70;99.90;;;;;;5108339;27;20197;-54
2022/08/02 09:13:15;;;;;;;4.70;1.63;;;18.70;99.90;;;;;;5110015;27;20212;-56
2022/08/02 09:15:44;;;;;;;5.73;1.47;;;18.80;99.90;;;;;;5102495;27;20240;-52
2022/08/02 09:18:13;;;;;;;5.17;1.53;;;18.80;99.90;;;;;;5094108;27;20208;-52
2022/08/02 09:20:57;;;;;;;6.70;1.90;;;18.80;99.90;;;;;;5112458;27;20197;-55
2022/08/02 09:23:25;;;;;;;5.00;1.57;;;18.90;99.90;;;;;;5109004;27;20184;-56
2022/08/02 09:25:57;;;;;;;5.03;1.57;;;19.10;99.90;;;;;;5107387;27;20208;-54
2022/08/02 09:28:30;;;;;;;4.37;1.27;;;19.20;99.90;;;;;;5106194;27;20216;-54
2022/08/02 09:31:03;;;;;;;5.23;1.60;;;19.40;99.90;;;;;;5103081;27;20213;-54
2022/08/02 09:33:30;;;;;;;3.77;1.60;;;19.30;99.90;;;;;;5094122;27;20231;-54
2022/08/02 09:36:02;;;;;;;3.97;1.70;;;19.50;99.90;;;;;;5111884;27;20193;-56
2022/08/02 09:38:29;;;;;;;4.53;1.60;;;19.60;99.90;;;;;;5116154;27;20216;-54
2022/08/02 09:40:56;;;;;;;4.83;1.60;;;19.60;99.90;;;;;;5113283;27;20204;-52
2022/08/02 09:43:35;;;;;;;4.90;1.50;;;19.70;99.60;;;;;;5112024;27;20925;-54
2022/08/02 09:46:14;;;;;;;4.97;1.70;;;19.60;99.60;;;;;;5107843;27;20196;-55
2022/08/02 09:48:50;;;;;;;6.80;2.40;;;19.50;98.90;;;;;;5098595;27;20221;-55
2022/08/02 09:51:22;;;;;;;5.03;1.53;;;19.50;99.20;;;;;;5102264;28;20272;-51
2022/08/02 09:53:51;;;;;;;3.83;1.40;;;19.50;99.30;;;;;;5107858;27;20303;-57
2022/08/02 09:56:19;;;;;;;7.33;2.40;;;19.70;99.00;;;;;;5109564;28;20197;-55
2022/08/02 09:58:46;;;;;;;3.20;1.00;;;19.80;98.30;;;;;;5112449;28;20220;-56
2022/08/02 10:01:15;;;;;;;5.87;1.67;;;19.90;96.80;;;;;;5107411;27;21310;-55
2022/08/02 10:03:59;;;;;;;5.27;1.93;;;19.70;96.40;;;;;;5099312;27;20220;-56
2022/08/02 10:06:27;;;;;;;3.37;1.20;;;19.80;96.40;;;;;;5113539;27;20193;-55
2022/08/02 10:08:55;;;;;;;5.47;1.67;;;19.90;96.40;;;;;;5116680;27;20217;-53
2022/08/02 10:11:22;;;;;;;4.50;1.80;;;20.00;96.50;;;;;;5109707;27;20441;-56
2022/08/02 10:13:50;;;;;;;5.13;1.37;;;20.10;95.80;;;;;;5114546;27;20212;-56
2022/08/02 10:16:22;;;;;;;3.63;1.43;;;20.20;95.80;;;;;;5110837;27;20221;-56
2022/08/02 10:18:50;;;;;;;4.33;1.40;;;20.40;95.50;;;;;;5109948;27;20221;-51
2022/08/02 10:21:22;;;;;;;4.43;1.50;;;20.50;95.70;;;;;;5100771;27;20337;-53
2022/08/02 10:23:51;;;;;;;3.13;1.37;;;20.70;95.20;;;;;;5112848;27;20196;-52
2022/08/02 10:26:19;;;;;;;3.20;1.60;;;20.80;95.10;;;;;;5114834;27;20182;-56
2022/08/02 10:28:49;;;;;;;3.17;1.10;;;20.90;94.00;;;;;;5122335;27;20636;-55
2022/08/02 10:31:21;;;;;;;5.80;1.67;;;21.00;92.80;;;;;;5111758;27;20185;-52
2022/08/02 10:33:51;;;;;;;1.17;0.80;;;20.90;92.20;;;;;;5107904;27;20231;-54
2022/08/02 10:36:22;;;;;;;3.00;1.03;;;21.00;91.70;;;;;;5100731;27;20427;-53
2022/08/02 10:38:49;;;;;;;3.20;1.10;;;21.10;91.20;;;;;;5109842;27;20254;-52
2022/08/02 10:41:43;;;;;;;3.77;1.00;;;21.30;90.80;;;;;;5105209;27;20191;-56
2022/08/02 10:44:21;;;;;;;1.70;1.20;;;21.40;88.40;;;;;;5105375;27;20197;-55
2022/08/02 10:46:49;;;;;;;1.97;1.17;;;21.40;85.90;;;;;;5123886;27;20195;-55
2022/08/02 10:49:17;;;;;;;3.50;1.00;;;21.40;84.90;;;;;;5112612;27;20906;-56
2022/08/02 10:52:07;;;;;;;1.70;1.17;;;21.30;84.40;;;;;;5099258;27;20572;-55
2022/08/02 10:54:37;;;;;;;2.47;1.20;;;21.40;84.00;;;;;;5116615;27;20205;-53
2022/08/02 10:57:19;;;;;;;2.37;0.90;;;21.40;84.90;;;;;;5110211;27;20202;-55
2022/08/02 10:59:46;;;;;;;4.33;1.50;;;21.60;81.60;;;;;;5111305;27;20189;-56
2022/08/02 11:02:34;;;;;;;1.97;1.13;;;21.70;83.30;;;;;;5114658;27;20181;-55
2022/08/02 11:05:06;;;;;;;4.07;1.17;;;21.80;84.20;;;;;;5102847;27;20209;-55
2022/08/02 11:07:37;;;;;;;3.03;1.10;;;21.90;84.00;;;;;;5107188;27;20274;-53
2022/08/02 11:10:33;;;;;;;4.03;1.17;;;22.00;84.80;;;;;;5112585;27;20189;-55
2022/08/02 11:13:04;;;;;;;5.00;0.77;;;22.10;81.30;;;;;;5106979;27;20198;-54
2022/08/02 11:15:51;;;;;;;2.40;1.00;;;22.10;83.50;;;;;;5118849;27;20209;-55
2022/08/02 11:18:20;;;;;;;3.20;1.40;;;22.20;79.80;;;;;;5109429;27;20212;-56
2022/08/02 11:20:47;;;;;;;2.23;0.90;;;22.30;81.20;;;;;;5109708;27;20296;-56
2022/08/02 11:23:34;;;;;;;2.83;1.20;;;22.30;80.40;;;;;;5091949;27;20210;-55
2022/08/02 11:26:01;;;;;;;2.27;1.07;;;22.30;80.90;;;;;;5112867;27;20197;-57
2022/08/02 11:28:28;;;;;;;2.15;1.05;;;22.40;80.80;;;;;;5106027;27;20342;-56
2022/08/02 11:30:59;;;;;;;4.43;1.10;;;22.60;81.60;;;;;;5109724;27;20608;-55
2022/08/02 11:33:32;;;;;;;1.92;1.15;;;22.70;81.10;;;;;;5110719;27;20184;-56
2022/08/02 11:36:04;;;;;;;2.40;1.02;;;22.80;80.50;;;;;;5102055;27;20228;-53
2022/08/02 11:38:31;;;;;;;6.43;1.00;;;22.80;80.50;;;;;;5109818;27;20220;-57
2022/08/02 11:40:58;;;;;;;2.58;1.23;;;22.90;80.60;;;;;;5115526;27;20676;-56
2022/08/02 11:43:26;;;;;;;2.72;1.45;;;23.10;79.60;;;;;;5113033;27;20201;-54
2022/08/02 11:45:55;;;;;;;2.55;0.90;;;23.10;77.10;;;;;;5116843;27;20254;-56
2022/08/02 11:48:36;;;;;;;2.00;0.80;;;23.00;76.80;;;;;;5103003;27;20240;-53
2022/08/02 11:51:08;;;;;;;2.13;1.27;;;23.30;73.30;;;;;;5102491;27;20201;-57
2022/08/02 11:53:48;;;;;;;1.77;0.98;;;23.40;75.30;;;;;;5093462;27;20215;-51
2022/08/02 11:56:16;;;;;;;2.72;1.10;;;23.50;74.80;;;;;;5105952;27;20506;-53
2022/08/02 11:59:00;;;;;;;1.45;0.95;;;23.50;74.20;;;;;;5114983;27;20220;-55
2022/08/02 12:01:27;;;;;;;3.90;1.13;;;23.50;75.70;;;;;;5114713;27;20230;-55
2022/08/02 12:03:59;;;;;;;3.90;1.13;;;23.60;75.00;;;;;;5109857;27;20534;-54
2022/08/02 12:06:27;;;;;;;2.72;1.25;;;23.70;76.40;;;;;;5105262;27;20204;-57
2022/08/02 12:08:59;;;;;;;1.83;0.80;;;23.70;75.80;;;;;;5102710;27;20248;-57
2022/08/02 12:11:26;;;;;;;2.85;0.88;;;23.80;74.20;;;;;;5111399;27;20290;-56
2022/08/02 12:13:52;;;;;;;3.63;1.10;;;23.90;74.30;;;;;;5107199;27;20208;-56
2022/08/02 12:19:18;;;;;;;3.88;1.52;;;24.00;73.10;;;;;;5104241;27;20747;-57
2022/08/02 12:21:45;;;;;;;4.25;1.40;;;24.00;73.60;;;;;;5113579;27;20241;-53
2022/08/02 12:24:13;;;;;;;2.28;1.02;;;24.20;73.50;;;;;;5094342;27;20213;-55
2022/08/02 12:26:44;;;;;;;2.53;1.30;;;24.40;72.20;;;;;;5101413;27;20206;-57
2022/08/02 12:29:11;;;;;;;2.58;1.00;;;24.40;71.20;;;;;;5108656;27;20217;-55
2022/08/02 12:31:47;;;;;;;3.20;0.98;;;24.40;71.60;;;;;;5108468;27;20194;-56
2022/08/02 12:34:17;;;;;;;3.47;1.30;;;24.40;68.70;;;;;;5109047;27;20219;-57
2022/08/02 12:36:57;;;;;;;3.08;1.13;;;24.40;69.00;;;;;;5117924;27;20201;-57
2022/08/02 12:39:34;;;;;;;3.70;1.20;;;24.50;70.00;;;;;;5098932;27;20208;-56
2022/08/02 12:42:01;;;;;;;4.82;1.23;;;24.60;68.70;;;;;;5102896;27;20205;-57
2022/08/02 12:44:28;;;;;;;2.53;1.13;;;24.60;68.70;;;;;;5109424;27;20935;-53
2022/08/02 12:46:59;;;;;;;3.17;1.20;;;24.50;68.40;;;;;;5116147;27;20196;-55
2022/08/02 12:49:28;;;;;;;3.30;1.50;;;24.70;68.80;;;;;;5110495;27;20449;-55
2022/08/02 12:51:55;;;;;;;2.15;1.20;;;24.80;68.70;;;;;;5116268;27;20203;-56
2022/08/02 12:54:23;;;;;;;2.45;1.20;;;24.90;67.40;;;;;;5102935;27;20215;-57
2022/08/02 12:56:51;;;;;;;2.08;1.30;;;25.00;69.00;;;;;;5108984;27;20204;-56
2022/08/02 12:59:33;;;;;;;2.00;1.00;;;25.10;68.80;;;;;;5095390;27;20189;-55
2022/08/02 13:02:02;;;;;;;3.50;1.20;;;25.30;64.90;;;;;;5107224;27;20189;-55
2022/08/02 13:04:31;;;;;;;3.63;1.48;;;25.30;67.00;;;;;;5119191;27;20786;-57